Flight Track Log - Related Links

Times and Time Zones

All times are in EDT time to prevent confusion due to time zone crossing. See the UAL335 flight status page for this flight to view local times or setup timezone preferences in your user account.

Time Position Orientation Groundspeed Altitude Reporting Facility
EDT Latitude Longitude Course Direction KTS MPH feet Rate Location/Type
Mon 08:39:29 AM 38.7344 -121.5783 78° East 172 198 1,800  Level Oakland Center
Mon 08:40:29 AM 38.7119 -121.5256 119° Southeast 241 277 3,500 2,150 Climbing Oakland Center
Mon 08:41:00 AM 38.4954 -121.2655 80° East  Level FlightAware Approximate
Mon 08:41:29 AM 38.6442 -121.4842 154° Southeast 281 323 6,100  Level Oakland Center
Mon 08:42:00 AM 38.5309 -121.1125 76° East  Level FlightAware Approximate
Mon 08:42:30 AM 38.6136 -121.3944 114° Southeast 310 357 9,300  Level Oakland Center
Mon 08:43:00 AM 38.5601 -120.9567 78° East  Level FlightAware Approximate
Mon 08:43:30 AM 38.6133 -121.2836 90° East 322 371 11,600  Level Oakland Center
Mon 08:44:00 AM 38.5862 -120.7999 78° East  Level FlightAware Approximate
Mon 08:44:30 AM 38.6136 -121.1533 90° East 370 426 13,500  Level Oakland Center
Mon 08:45:30 AM 38.6131 -121.0258 90° East 392 451 15,700 2,250 Climbing Oakland Center
Mon 08:46:30 AM 38.6136 -120.8792 90° East 408 470 18,000 2,132 Climbing Oakland Center
Mon 08:47:31 AM 38.6119 -120.7289 91° East 418 481 20,000 1,934 Climbing Oakland Center
Mon 08:48:31 AM 38.6111 -120.5736 90° East 433 498 21,900 1,750 Climbing Oakland Center
Mon 08:49:31 AM 38.6103 -120.4128 90° East 449 517 23,500 1,700 Climbing Oakland Center
Mon 08:50:31 AM 38.6092 -120.2506 90° East 455 524 25,300 1,600 Climbing Oakland Center
Mon 08:51:31 AM 38.6078 -120.0856 91° East 462 532 26,700 1,289 Climbing Oakland Center
Mon 08:52:32 AM 38.6078 -119.9175 90° East 471 542 27,900 1,289 Climbing Oakland Center
Mon 08:53:32 AM 38.6019 -119.7203 92° East 486 559 29,300 1,250 Climbing Oakland Center
Mon 08:54:32 AM 38.5997 -119.5464 91° East 491 565 30,400 1,500 Climbing Oakland Center
Mon 08:55:32 AM 38.5956 -119.3728 92° East 490 564 32,300 1,488 Climbing Oakland Center
Mon 08:56:33 AM 38.5931 -119.2039 91° East 480 552 33,400 1,041 Climbing Oakland Center
Mon 08:57:33 AM 38.5897 -119.0317 91° East 487 560 34,400 1,100 Climbing Oakland Center
Mon 08:58:33 AM 38.5864 -118.8611 91° East 484 557 35,600 1,150 Climbing Oakland Center
Mon 08:59:33 AM 38.5817 -118.6919 92° East 480 552 36,700 700 Climbing Oakland Center
Mon 09:00:33 AM 38.5786 -118.5236 91° East 478 550 37,000 149 Climbing Oakland Center
Mon 09:01:34 AM 38.5744 -118.3578 92° East 472 543 37,000  Level Oakland Center
Mon 09:02:34 AM 38.5703 -118.1906 92° East 473 544 37,000  Level Oakland Center
Mon 09:03:34 AM 38.5658 -118.0300 92° East 473 544 37,000  Level Oakland Center
Mon 09:04:34 AM 38.5533 -117.8603 95° East 477 549 37,000  Level Oakland Center
Mon 09:05:35 AM 38.5411 -117.6914 95° East 476 548 37,000  Level Oakland Center
Mon 09:06:35 AM 38.5278 -117.5214 96° East 478 550 37,000  Level Oakland Center
Mon 09:07:35 AM 38.5144 -117.3497 96° East 481 554 37,000  Level Oakland Center
Mon 09:08:43 AM 38.4989 -117.1425 95° East 483 556 37,000  Level Salt Lake Center
Mon 09:09:36 AM 38.4878 -117.0061 96° East 480 552 37,000  Level Oakland Center
Mon 09:10:36 AM 38.4739 -116.8342 96° East 482 555 37,000  Level Oakland Center
Mon 09:11:36 AM 38.4600 -116.6614 96° East 485 558 37,000  Level Oakland Center
Mon 09:12:46 AM 38.4422 -116.4564 96° East 482 555 37,000  Level Salt Lake Center
Mon 09:13:47 AM 38.4275 -116.2819 96° East 491 565 37,000  Level Salt Lake Center
Mon 09:14:38 AM 38.4147 -116.1436 97° East 491 565 37,000  Level Oakland Center
Mon 09:15:49 AM 38.3975 -115.9344 96° East 496 571 37,000  Level Salt Lake Center
Mon 09:16:49 AM 38.3817 -115.7592 97° East 497 572 37,000  Level Salt Lake Center
Mon 09:17:50 AM 38.3658 -115.5844 97° East 498 573 37,000 49 Level Salt Lake Center
Mon 09:18:51 AM 38.3497 -115.4103 97° East 494 568 37,100  Climbing Salt Lake Center
Mon 09:19:52 AM 38.3314 -115.2153 97° East 496 571 37,000 -49 Descending Salt Lake Center
Mon 09:20:53 AM 38.3147 -115.0419 97° East 495 570 37,000  Level Salt Lake Center
Mon 09:21:54 AM 38.2967 -114.8692 98° East 494 568 37,000  Level Salt Lake Center
Mon 09:22:54 AM 38.2800 -114.6953 97° East 495 570 37,000  Level Salt Lake Center
Mon 09:23:55 AM 38.2631 -114.5189 97° East 502 578 37,000  Level Salt Lake Center
Mon 09:24:56 AM 38.2547 -114.3450 93° East 496 571 37,000  Level Salt Lake Center
Mon 09:25:57 AM 38.2703 -114.1711 83° East 493 567 37,000  Level Salt Lake Center
Mon 09:26:58 AM 38.2847 -113.9969 84° East 495 570 37,000  Level Salt Lake Center
Mon 09:27:59 AM 38.2983 -113.8206 84° East 498 573 37,000  Level Salt Lake Center
Mon 09:29:00 AM 38.3128 -113.6461 84° East 497 572 37,000  Level Salt Lake Center
Mon 09:30:01 AM 38.3267 -113.4686 84° East 501 577 37,000  Level Salt Lake Center
Mon 09:31:02 AM 38.3406 -113.2917 84° East 501 577 37,000  Level Salt Lake Center
Mon 09:32:02 AM 38.3536 -113.1153 85° East 500 575 37,000  Level Salt Lake Center
Mon 09:33:03 AM 38.3653 -112.9372 85° East 501 577 37,000  Level Salt Lake Center
Mon 09:34:04 AM 38.3697 -112.7586 88° East 502 578 37,000  Level Salt Lake Center
Mon 09:35:05 AM 38.3758 -112.5797 87° East 503 579 37,000  Level Salt Lake Center
Mon 09:36:06 AM 38.3817 -112.3997 88° East 506 582 37,000  Level Salt Lake Center
Mon 09:37:07 AM 38.3869 -112.1817 88° East 512 589 37,000  Level Salt Lake Center
Mon 09:38:08 AM 38.3931 -112.0011 87° East 511 588 37,000  Level Salt Lake Center
Mon 09:39:09 AM 38.3972 -111.8186 88° East 515 593 37,000 49 Level Salt Lake Center
Mon 09:40:11 AM 38.4008 -111.6364 88° East 514 592 37,100  Climbing Salt Lake Center
Mon 09:41:12 AM 38.4056 -111.4578 88° East 508 585 37,000 -49 Descending Salt Lake Center
Mon 09:42:13 AM 38.4089 -111.2797 89° East 504 580 37,000  Level Salt Lake Center
Mon 09:43:14 AM 38.4125 -111.1014 88° East 504 580 37,000  Level Salt Lake Center
Mon 09:44:15 AM 38.4150 -110.9258 89° East 503 579 37,000  Level Salt Lake Center
Mon 09:45:16 AM 38.4178 -110.7258 89° East 507 583 37,000 49 Level Salt Lake Center
Mon 09:46:17 AM 38.4211 -110.5522 89° East 511 588 37,100  Climbing Salt Lake Center
Mon 09:47:14 AM 38.4242 -110.3778 89° East 511 588 37,000 -49 Descending Denver Center
Mon 09:48:19 AM 38.4300 -110.1761 88° East 514 592 37,000  Level Salt Lake Center
Mon 09:49:16 AM 38.4317 -110.0008 89° East 513 590 37,000  Level Denver Center
Mon 09:50:17 AM 38.4342 -109.8253 89° East 518 596 37,000  Level Denver Center
Mon 09:51:18 AM 38.4375 -109.6239 89° East 512 589 37,000  Level Denver Center
Mon 09:52:19 AM 38.4408 -109.4506 89° East 512 589 37,000  Level Denver Center
Mon 09:53:20 AM 38.4422 -109.2736 89° East 519 597 37,000 49 Level Denver Center
Mon 09:54:21 AM 38.4444 -109.0672 89° East 523 602 37,100  Climbing Denver Center
Mon 09:55:22 AM 38.4461 -108.8931 89° East 517 595 37,000 -49 Descending Denver Center
Mon 09:56:23 AM 38.4378 -108.7194 93° East 515 593 37,000  Level Denver Center
Mon 09:57:24 AM 38.3653 -108.5333 116° Southeast 523 602 37,000  Level Denver Center
Mon 09:58:25 AM 38.2967 -108.3789 119° Southeast 524 603 37,000  Level Denver Center
Mon 09:59:27 AM 38.2161 -108.1958 119° Southeast 530 610 37,000  Level Denver Center
Mon 10:00:28 AM 38.1658 -108.0325 111° Southeast 531 611 37,000  Level Denver Center
Mon 10:01:29 AM 38.1925 -107.8603 79° East 524 603 37,000  Level Denver Center
Mon 10:02:30 AM 38.2758 -107.7000 56° Northeast 492 566 37,000  Level Denver Center
Mon 10:03:31 AM 38.3483 -107.5594 57° Northeast 494 568 37,000  Level Denver Center
Mon 10:04:32 AM 38.4206 -107.4192 57° Northeast 496 571 37,000  Level Denver Center
Mon 10:05:33 AM 38.5044 -107.2578 56° Northeast 491 565 37,000  Level Denver Center
Mon 10:06:35 AM 38.5836 -107.1064 56° Northeast 499 574 37,000  Level Denver Center
Mon 10:07:36 AM 38.6608 -106.9556 57° Northeast 507 583 37,000  Level Denver Center
Mon 10:08:37 AM 38.7378 -106.8017 57° Northeast 514 592 37,000 -683 Level Denver Center
Mon 10:09:39 AM 38.8161 -106.6489 57° Northeast 515 593 35,600 -2,098 Descending Denver Center
Mon 10:10:40 AM 38.8964 -106.4900 57° Northeast 493 567 32,700 -2,902 Descending Denver Center
Mon 10:11:41 AM 38.9678 -106.3458 57° Northeast 499 574 29,700 -2,683 Descending Denver Center
Mon 10:12:43 AM 39.0542 -106.1739 57° Northeast 511 588 27,200 -2,537 Descending Denver Center
Mon 10:13:44 AM 39.1347 -106.0108 57° Northeast 513 590 24,500 -2,115 Descending Denver Center
Mon 10:14:45 AM 39.2056 -105.8661 58° Northeast 479 551 22,900 -2,098 Descending Denver Center
Mon 10:15:47 AM 39.2722 -105.7342 57° Northeast 442 509 20,200 -2,195 Descending Denver Center
Mon 10:16:48 AM 39.3303 -105.6117 58° Northeast 397 457 18,400 -1,415 Descending Denver Center
Mon 10:17:50 AM 39.3867 -105.4978 57° Northeast 380 437 17,300 -1,171 Descending Denver Center
Mon 10:18:51 AM 39.4008 -105.3692 82° East 367 422 16,000 -1,475 Descending Denver Center
Mon 10:19:52 AM 39.4064 -105.2431 87° East 352 405 14,300 -1,366 Descending Denver Center
Mon 10:20:54 AM 39.4119 -105.1139 87° East 333 383 13,200 -629 Descending Denver Center
Mon 10:21:56 AM 39.4172 -105.0050 86° East 308 354 13,000 -537 Descending Denver Center
Mon 10:22:57 AM 39.4400 -104.9111 73° East 257 296 12,100 -585 Descending Denver Center
Mon 10:23:59 AM 39.4800 -104.8342 56° Northeast 268 308 11,800 -732 Descending Denver Center
Mon 10:25:00 AM 39.5428 -104.7942 26° Northeast 253 291 10,600 -1,317 Descending Denver Center
Mon 10:26:02 AM 39.6053 -104.7550 26° Northeast 233 268 9,100 -1,306 Descending Denver Center
Mon 10:27:04 AM 39.6600 -104.7197 26° Northeast 222 255 7,900 -829 Descending Denver Center
Mon 10:28:05 AM 39.7103 -104.6867 27° Northeast 206 237 7,400 -492 Descending Denver Center

Login

Don't have an account? Register now (free) for customized features, flight alerts, and more!